Time;durP1;ratioP1;P1;durP2;ratioP2;P2;SDS_P1;SDS_P2;PMS_P1;PMS_P2;Temp;Humidity;BMP_temperature;BMP_pressure;BME280_temperature;BME280_humidity;BME280_pressure;Samples;Min_cycle;Max_cycle;Signal;HPM_P1;HPM_P2
2023/12/26 00:02:13;;;;;;;11.97;11.07;;;;;;;6.88;68.69;92924.66;5056590;28;20216;-76
2023/12/26 00:04:39;;;;;;;11.43;10.53;;;;;;;6.77;68.72;92926.38;5068336;28;20272;-76
2023/12/26 00:07:04;;;;;;;11.20;10.47;;;;;;;6.85;68.10;92923.31;5067480;28;21122;-76
2023/12/26 00:09:29;;;;;;;9.83;9.10;;;;;;;6.62;69.20;92894.31;5070055;28;20218;-77
2023/12/26 00:11:55;;;;;;;13.00;11.90;;;;;;;6.70;69.03;92901.66;5069426;28;20221;-76
2023/12/26 00:14:21;;;;;;;11.23;10.43;;;;;;;6.84;68.14;92916.59;5065824;28;20209;-76
2023/12/26 00:16:46;;;;;;;11.30;10.67;;;;;;;6.83;68.23;92907.25;5062379;28;20247;-76
2023/12/26 00:19:11;;;;;;;10.20;9.67;;;;;;;6.88;68.15;92917.63;5067275;28;20216;-77
2023/12/26 00:21:37;;;;;;;11.00;10.20;;;;;;;6.91;67.55;92911.94;5055226;28;20229;-74
2023/12/26 00:24:03;;;;;;;11.77;10.77;;;;;;;6.78;68.37;92922.75;5068018;28;20188;-74
2023/12/26 00:26:29;;;;;;;13.87;12.73;;;;;;;6.84;67.95;92929.56;5061531;28;20178;-75
2023/12/26 00:28:54;;;;;;;13.27;12.17;;;;;;;6.81;68.71;92931.84;5049514;28;20273;-74
2023/12/26 00:31:20;;;;;;;12.47;11.57;;;;;;;6.61;67.70;92919.50;5046768;28;20274;-73
2023/12/26 00:33:45;;;;;;;12.03;11.10;;;;;;;6.76;68.47;92937.00;5047613;28;20189;-74
2023/12/26 00:36:18;;;;;;;11.57;10.67;;;;;;;6.83;67.83;92942.78;5049562;28;20186;-74
2023/12/26 00:38:45;;;;;;;11.73;10.93;;;;;;;6.84;67.49;92945.13;5049473;28;20293;-73
2023/12/26 00:41:11;;;;;;;10.33;9.53;;;;;;;6.69;69.04;92947.59;5048982;28;20209;-74
2023/12/26 00:43:37;;;;;;;12.17;11.37;;;;;;;6.68;69.45;92948.59;5057743;28;20676;-74
2023/12/26 00:46:02;;;;;;;10.67;10.07;;;;;;;6.55;70.40;92951.63;5064031;28;20193;-74
2023/12/26 00:48:27;;;;;;;11.33;10.43;;;;;;;6.57;70.55;92953.97;5066823;28;20293;-74
2023/12/26 00:50:53;;;;;;;12.13;11.27;;;;;;;6.68;71.30;92956.38;5056514;28;20956;-74
2023/12/26 00:53:18;;;;;;;11.97;10.97;;;;;;;6.61;71.71;92955.03;5066675;28;20224;-75
2023/12/26 00:55:44;;;;;;;11.50;10.37;;;;;;;6.63;70.83;92960.75;5063032;28;20708;-73
2023/12/26 00:58:09;;;;;;;11.73;10.73;;;;;;;6.55;71.01;92972.38;5083791;28;20248;-74
2023/12/26 01:00:35;;;;;;;12.37;11.43;;;;;;;6.57;71.23;92959.91;5072132;28;20189;-74
2023/12/26 01:03:00;;;;;;;12.07;11.17;;;;;;;6.44;71.79;92944.75;5062374;28;20308;-73
2023/12/26 01:05:26;;;;;;;13.23;12.23;;;;;;;6.60;70.66;92969.81;5061300;28;20197;-74
2023/12/26 01:07:52;;;;;;;14.33;13.00;;;;;;;6.56;71.20;92963.56;5067112;28;20221;-73
2023/12/26 01:10:17;;;;;;;15.13;13.63;;;;;;;6.52;71.97;92972.84;5065728;28;20197;-73
2023/12/26 01:12:42;;;;;;;18.90;17.00;;;;;;;6.45;72.00;92959.28;5056344;28;20267;-73
2023/12/26 01:15:08;;;;;;;16.63;15.07;;;;;;;6.39;72.61;92968.03;5062094;28;20193;-74
2023/12/26 01:17:33;;;;;;;16.23;14.53;;;;;;;6.25;73.32;92954.69;5065865;28;20252;-73
2023/12/26 01:19:59;;;;;;;17.33;15.43;;;;;;;6.30;74.08;92966.91;5069533;28;20221;-74
2023/12/26 01:22:24;;;;;;;17.37;15.50;;;;;;;6.24;74.91;92960.88;5072874;28;20221;-73
2023/12/26 01:24:51;;;;;;;14.37;13.30;;;;;;;6.22;73.97;92962.16;5064603;28;20178;-74
2023/12/26 01:27:16;;;;;;;16.70;14.40;;;;;;;6.17;74.49;92959.50;5066317;28;20225;-76
2023/12/26 01:29:42;;;;;;;15.60;13.97;;;;;;;6.08;74.08;92946.22;5069389;28;20224;-74
2023/12/26 01:32:07;;;;;;;16.23;14.63;;;;;;;6.26;74.54;92952.88;5061176;28;20219;-74
2023/12/26 01:34:32;;;;;;;14.53;13.23;;;;;;;6.24;73.13;92940.16;5070084;28;20185;-74
2023/12/26 01:36:58;;;;;;;13.43;12.33;;;;;;;6.24;73.02;92939.38;5067939;28;20213;-75
2023/12/26 01:39:25;;;;;;;12.20;11.20;;;;;;;5.96;73.01;92893.72;5067833;28;20232;-74
2023/12/26 01:41:50;;;;;;;13.23;11.87;;;;;;;6.23;74.32;92950.75;5067115;28;20225;-74
2023/12/26 01:44:16;;;;;;;14.73;13.47;;;;;;;6.24;74.54;92954.94;5069839;28;20835;-74
2023/12/26 01:46:41;;;;;;;13.87;12.73;;;;;;;6.26;74.27;92958.84;5068657;28;20250;-71
2023/12/26 01:49:07;;;;;;;13.53;12.30;;;;;;;6.13;74.48;92956.63;5069367;28;20213;-72
2023/12/26 01:51:33;;;;;;;16.17;14.53;;;;;;;6.19;74.59;92966.03;5067841;28;20192;-71
2023/12/26 01:53:59;;;;;;;16.80;15.10;;;;;;;6.11;73.90;92970.84;5069186;28;20174;-72
2023/12/26 01:56:26;;;;;;;19.70;15.63;;;;;;;6.12;74.34;92975.78;5054781;28;20189;-72
2023/12/26 01:58:52;;;;;;;15.00;13.33;;;;;;;6.18;74.31;92968.84;5041158;28;20225;-72
2023/12/26 02:01:18;;;;;;;18.20;13.83;;;;;;;6.08;74.34;92955.78;5037799;28;20209;-72
2023/12/26 02:03:44;;;;;;;14.20;12.97;;;;;;;6.19;73.66;92965.25;5030765;28;20256;-72
2023/12/26 02:06:09;;;;;;;15.23;13.63;;;;;;;5.99;75.09;92962.44;5039672;28;20207;-72
2023/12/26 02:08:39;;;;;;;20.70;15.43;;;;;;;6.03;74.57;92977.25;5038863;28;20246;-72
2023/12/26 02:11:04;;;;;;;17.20;15.47;;;;;;;6.08;74.19;92971.34;5043758;28;20214;-72
2023/12/26 02:13:30;;;;;;;25.67;16.87;;;;;;;6.01;74.21;92974.09;5047219;28;20218;-73
2023/12/26 02:15:58;;;;;;;20.20;15.13;;;;;;;6.04;73.97;92975.41;5044706;28;20179;-71
2023/12/26 02:18:24;;;;;;;17.63;13.87;;;;;;;5.96;74.46;92968.84;5058160;28;20232;-71
2023/12/26 02:20:49;;;;;;;12.93;11.90;;;;;;;5.98;73.49;92945.28;5065161;28;20301;-72
2023/12/26 02:23:15;;;;;;;15.10;13.50;;;;;;;6.00;73.78;92948.44;5042659;28;20222;-74
2023/12/26 02:25:40;;;;;;;21.80;14.33;;;;;;;5.97;74.84;92956.69;5039331;28;20429;-74
2023/12/26 02:28:07;;;;;;;18.57;13.77;;;;;;;5.95;74.38;92951.75;5054309;28;20246;-75
2023/12/26 02:30:34;;;;;;;28.30;17.37;;;;;;;6.01;73.98;92950.78;5062422;28;20190;-75
2023/12/26 02:33:00;;;;;;;29.07;18.37;;;;;;;5.92;74.10;92952.25;5055637;28;20229;-75
2023/12/26 02:35:27;;;;;;;22.17;15.13;;;;;;;5.80;73.79;92946.38;5047927;28;20193;-74
2023/12/26 02:37:52;;;;;;;15.23;13.73;;;;;;;5.98;73.28;92955.66;5039208;28;20282;-74
2023/12/26 02:40:17;;;;;;;17.63;13.17;;;;;;;5.99;73.19;92965.03;5044385;28;20189;-74
2023/12/26 02:42:43;;;;;;;12.23;11.13;;;;;;;5.93;73.95;92958.97;5052104;28;20301;-74
2023/12/26 02:45:09;;;;;;;11.70;10.60;;;;;;;5.83;74.88;92960.66;5051443;28;20188;-75
2023/12/26 02:47:34;;;;;;;9.30;8.63;;;;;;;5.74;74.73;92954.31;5062497;28;20236;-75
2023/12/26 02:50:00;;;;;;;11.27;10.47;;;;;;;5.80;75.46;92954.16;5071954;28;20186;-75
2023/12/26 02:52:25;;;;;;;10.40;9.73;;;;;;;5.96;73.58;92957.72;5072426;28;20228;-75
2023/12/26 02:54:50;;;;;;;11.03;10.27;;;;;;;6.14;72.33;92947.03;5063917;28;20189;-75
2023/12/26 02:57:16;;;;;;;10.17;9.60;;;;;;;6.01;72.90;92950.00;5062744;28;20296;-75
2023/12/26 02:59:41;;;;;;;11.27;10.73;;;;;;;6.12;73.19;92962.84;5067343;28;20182;-74
2023/12/26 03:02:06;;;;;;;9.67;9.17;;;;;;;6.08;72.98;92971.34;5062167;28;20221;-75
2023/12/26 03:04:32;;;;;;;10.20;9.70;;;;;;;6.01;72.31;92968.94;5070929;28;20184;-75
2023/12/26 03:06:57;;;;;;;9.73;9.13;;;;;;;6.10;71.59;92970.06;5071198;28;21056;-75
2023/12/26 03:09:22;;;;;;;9.47;9.07;;;;;;;6.11;71.54;92971.66;5072805;28;20232;-75
2023/12/26 03:11:48;;;;;;;10.27;9.70;;;;;;;6.02;72.05;92962.69;5071152;28;20213;-75
2023/12/26 03:14:15;;;;;;;10.90;10.20;;;;;;;6.07;72.29;92974.97;5069689;28;20210;-76
2023/12/26 03:16:40;;;;;;;10.77;10.23;;;;;;;6.02;71.20;92951.56;5069532;28;20244;-76
2023/12/26 03:19:05;;;;;;;10.03;9.53;;;;;;;6.17;71.29;92975.06;5068501;28;20185;-76
2023/12/26 03:21:31;;;;;;;10.90;10.20;;;;;;;6.10;72.58;92974.47;5060900;28;20234;-76
2023/12/26 03:23:56;;;;;;;11.70;10.80;;;;;;;6.05;71.51;92957.06;5046775;28;20258;-76
2023/12/26 03:26:22;;;;;;;9.67;9.03;;;;;;;6.14;71.66;92978.13;5051611;28;20192;-76
2023/12/26 03:28:47;;;;;;;10.77;10.13;;;;;;;6.21;71.74;92973.56;5044924;28;20202;-76
2023/12/26 03:31:13;;;;;;;10.13;9.53;;;;;;;6.09;72.04;92972.88;5041818;28;20183;-76
2023/12/26 03:33:38;;;;;;;9.90;9.27;;;;;;;6.05;73.33;92966.63;5050424;28;20233;-76
2023/12/26 03:36:05;;;;;;;9.47;8.90;;;;;;;6.08;72.85;92972.13;5050729;28;20194;-76
2023/12/26 03:38:31;;;;;;;9.80;8.93;;;;;;;5.98;72.70;92976.38;5062558;28;20225;-76
2023/12/26 03:40:57;;;;;;;11.00;10.40;;;;;;;5.93;73.13;92981.53;5070013;28;20588;-76
2023/12/26 03:43:22;;;;;;;10.97;10.23;;;;;;;5.90;73.49;92963.88;5061742;28;20232;-76
2023/12/26 03:45:49;;;;;;;11.20;10.43;;;;;;;5.96;73.60;92983.63;5065741;28;20260;-76
2023/12/26 03:48:14;;;;;;;9.70;9.07;;;;;;;5.98;73.20;92969.41;5066256;28;20218;-77
2023/12/26 03:50:40;;;;;;;11.00;10.17;;;;;;;5.90;72.87;92958.69;5064186;28;20294;-76
2023/12/26 03:53:05;;;;;;;10.03;9.43;;;;;;;6.05;71.88;92977.78;5067347;28;20307;-75
2023/12/26 03:55:30;;;;;;;9.90;9.40;;;;;;;6.15;71.05;92974.50;5070841;28;20201;-73
2023/12/26 03:57:56;;;;;;;10.33;9.73;;;;;;;6.20;70.45;92969.38;5048066;28;20218;-73
2023/12/26 04:00:22;;;;;;;10.57;10.07;;;;;;;6.12;70.45;92969.81;5049934;28;20217;-73
2023/12/26 04:02:47;;;;;;;10.07;9.33;;;;;;;6.14;71.77;92975.53;5046710;28;20277;-75
2023/12/26 04:05:13;;;;;;;10.53;9.67;;;;;;;6.05;71.92;92974.41;5046457;28;20254;-73
2023/12/26 04:07:38;;;;;;;10.07;9.57;;;;;;;6.01;70.96;92978.50;5045913;28;20218;-74
2023/12/26 04:10:04;;;;;;;10.77;10.07;;;;;;;5.89;72.32;92952.72;5049198;28;20170;-73
2023/12/26 04:12:29;;;;;;;9.97;9.57;;;;;;;6.06;71.73;92979.34;5044791;28;20238;-73
2023/12/26 04:14:55;;;;;;;10.37;9.77;;;;;;;6.05;71.57;92967.44;5042445;28;20197;-73
2023/12/26 04:17:21;;;;;;;10.30;9.60;;;;;;;6.05;72.58;92989.97;5044406;28;20241;-73
2023/12/26 04:19:47;;;;;;;9.87;9.27;;;;;;;5.89;73.88;92972.66;5037389;28;20230;-72
2023/12/26 04:22:12;;;;;;;12.23;11.43;;;;;;;5.94;72.85;92988.28;5044766;28;20234;-73
2023/12/26 04:24:38;;;;;;;10.93;10.40;;;;;;;5.63;73.86;92958.59;5043484;28;20178;-74
2023/12/26 04:27:05;;;;;;;11.07;10.37;;;;;;;5.78;74.35;92976.13;5033000;28;20240;-73
2023/12/26 04:29:31;;;;;;;11.20;10.30;;;;;;;5.81;72.94;92967.84;5042289;28;20266;-74
2023/12/26 04:31:56;;;;;;;11.30;10.60;;;;;;;5.86;72.94;92986.09;5041331;28;20248;-73
2023/12/26 04:34:22;;;;;;;11.93;11.00;;;;;;;6.06;71.59;92994.09;5035397;28;20185;-73
2023/12/26 04:36:47;;;;;;;10.67;10.03;;;;;;;6.09;72.14;92997.00;5039465;28;20229;-73
2023/12/26 04:39:12;;;;;;;11.13;10.33;;;;;;;6.17;70.78;93000.97;5044767;28;20189;-73
2023/12/26 04:41:38;;;;;;;10.20;9.70;;;;;;;6.40;69.61;93000.72;5039260;28;20183;-73
2023/12/26 04:44:03;;;;;;;11.30;10.53;;;;;;;6.29;71.03;93001.63;5062572;28;20191;-73
2023/12/26 04:46:29;;;;;;;10.80;10.30;;;;;;;6.02;71.34;92995.63;5068065;28;20208;-74
2023/12/26 04:48:54;;;;;;;10.57;9.97;;;;;;;6.14;70.83;93001.47;5042135;28;20246;-73
2023/12/26 04:51:20;;;;;;;10.10;9.43;;;;;;;6.09;71.34;93009.19;5036481;28;20190;-73
2023/12/26 04:53:46;;;;;;;10.87;10.20;;;;;;;5.93;71.62;92992.66;5039565;28;20230;-73
2023/12/26 04:56:19;;;;;;;10.90;10.33;;;;;;;6.05;71.82;93002.91;5048596;28;20213;-73
2023/12/26 04:58:49;;;;;;;11.40;10.60;;;;;;;5.90;72.97;92997.56;5045820;28;20202;-74
2023/12/26 05:01:18;;;;;;;10.13;9.40;;;;;;;5.90;71.78;92997.56;5039155;28;20461;-73
2023/12/26 05:03:45;;;;;;;10.93;10.27;;;;;;;6.08;70.68;93003.22;5045865;28;20249;-73
2023/12/26 05:06:11;;;;;;;9.87;9.27;;;;;;;5.97;71.71;92996.34;5046721;28;20197;-73
2023/12/26 05:08:38;;;;;;;11.47;10.67;;;;;;;5.90;71.32;92990.56;5041498;28;20218;-73
2023/12/26 05:11:04;;;;;;;9.43;8.90;;;;;;;5.80;70.71;92981.84;5046569;28;20198;-73
2023/12/26 05:13:30;;;;;;;9.83;9.33;;;;;;;5.87;70.44;92985.06;5062486;28;20230;-73
2023/12/26 05:15:55;;;;;;;10.53;9.93;;;;;;;5.92;70.48;93004.06;5066588;28;20196;-75
2023/12/26 05:18:20;;;;;;;9.63;9.17;;;;;;;5.92;71.91;92996.28;5069058;28;20240;-73
2023/12/26 05:20:46;;;;;;;10.43;9.40;;;;;;;5.69;72.55;92988.72;5066597;28;20224;-73
2023/12/26 05:23:11;;;;;;;10.13;9.33;;;;;;;5.55;73.65;92981.50;5060923;28;20228;-73
2023/12/26 05:25:37;;;;;;;9.67;9.27;;;;;;;5.71;72.21;92978.88;5069738;28;20190;-73
2023/12/26 05:28:03;;;;;;;10.47;9.97;;;;;;;5.47;72.06;92937.91;5064020;28;20233;-74
2023/12/26 05:30:29;;;;;;;9.77;9.17;;;;;;;5.70;73.58;92981.69;5066045;28;20285;-74
2023/12/26 05:32:54;;;;;;;12.63;11.33;;;;;;;5.51;74.31;92978.59;5052184;28;20281;-73
2023/12/26 05:35:19;;;;;;;22.57;15.47;;;;;;;5.63;73.37;92973.34;5038980;28;20206;-73
2023/12/26 05:37:45;;;;;;;20.80;13.73;;;;;;;5.53;74.39;92968.00;5045371;28;20225;-73
2023/12/26 05:40:10;;;;;;;38.47;18.13;;;;;;;5.67;73.03;92985.56;5048484;28;20179;-73
2023/12/26 05:42:36;;;;;;;28.87;17.30;;;;;;;5.82;72.32;92988.38;5045042;28;20226;-73
2023/12/26 05:45:01;;;;;;;11.93;11.10;;;;;;;5.87;70.68;92992.84;5044419;28;20174;-73
2023/12/26 05:47:26;;;;;;;13.73;12.40;;;;;;;5.84;71.43;92990.72;5048949;28;20280;-74
2023/12/26 05:49:53;;;;;;;14.73;13.27;;;;;;;5.94;71.81;92990.84;5065187;28;20927;-73
2023/12/26 05:52:18;;;;;;;14.67;13.40;;;;;;;5.69;73.54;92987.91;5057526;28;20222;-73
2023/12/26 05:54:44;;;;;;;14.80;13.27;;;;;;;5.63;73.93;92997.44;5044720;28;20189;-74
2023/12/26 05:57:10;;;;;;;70.87;29.00;;;;;;;5.65;73.28;92994.59;5050923;28;20289;-72
2023/12/26 05:59:35;;;;;;;36.17;21.13;;;;;;;5.45;74.95;92989.16;5051877;28;20178;-74
2023/12/26 06:02:00;;;;;;;22.77;16.00;;;;;;;5.63;74.83;93004.41;5048310;28;20230;-74
2023/12/26 06:04:26;;;;;;;16.47;14.63;;;;;;;5.51;74.33;93001.16;5051468;28;20218;-74
2023/12/26 06:06:51;;;;;;;16.50;13.77;;;;;;;5.20;74.06;92958.50;5049470;28;20222;-73
2023/12/26 06:09:16;;;;;;;15.80;14.40;;;;;;;5.04;74.70;92948.97;5050598;28;20194;-73
2023/12/26 06:11:42;;;;;;;16.40;14.83;;;;;;;5.46;74.47;92999.28;5051828;28;20245;-72
2023/12/26 06:14:07;;;;;;;16.53;14.97;;;;;;;5.28;74.36;92978.00;5047158;28;20201;-73
2023/12/26 06:16:33;;;;;;;25.03;19.83;;;;;;;5.67;72.30;93013.25;5047023;28;20179;-72
2023/12/26 06:18:58;;;;;;;17.27;15.43;;;;;;;5.54;73.51;93001.44;5065500;28;20276;-73
2023/12/26 06:21:23;;;;;;;20.70;16.87;;;;;;;5.64;73.98;93011.16;5074614;28;20205;-73
2023/12/26 06:23:49;;;;;;;25.37;19.23;;;;;;;5.39;75.01;93000.44;5064873;28;20215;-73
2023/12/26 06:26:16;;;;;;;28.83;20.10;;;;;;;5.58;74.16;93019.88;5062509;28;20190;-75
2023/12/26 06:28:41;;;;;;;25.07;19.33;;;;;;;5.68;73.35;93015.63;5067624;28;20225;-75
2023/12/26 06:31:11;;;;;;;23.17;17.37;;;;;;;5.58;73.02;92981.03;5063261;28;20211;-76
2023/12/26 06:33:37;;;;;;;29.03;20.37;;;;;;;5.83;73.52;93023.63;5073349;28;20224;-74
2023/12/26 06:36:02;;;;;;;19.57;16.53;;;;;;;5.78;73.23;93020.16;5065296;28;20193;-75
2023/12/26 06:38:28;;;;;;;21.33;15.33;;;;;;;6.04;72.21;93014.28;5065576;28;20221;-74
2023/12/26 06:40:53;;;;;;;16.37;14.73;;;;;;;6.12;72.58;93032.81;5069659;28;20182;-73
2023/12/26 06:43:18;;;;;;;16.10;14.43;;;;;;;6.12;72.63;93012.06;5069874;28;20237;-75
2023/12/26 06:45:44;;;;;;;12.03;11.03;;;;;;;6.15;72.54;93019.38;5071461;28;20196;-78
2023/12/26 06:48:09;;;;;;;13.40;12.50;;;;;;;6.22;72.34;93019.19;5066870;28;20210;-81
2023/12/26 06:50:34;;;;;;;12.20;11.20;;;;;;;6.34;72.28;93025.03;5064088;28;20178;-79
2023/12/26 06:53:00;;;;;;;14.60;13.33;;;;;;;6.32;72.96;93019.28;5069495;28;20664;-80
2023/12/26 06:55:25;;;;;;;12.77;11.77;;;;;;;6.39;73.42;93022.50;5068875;28;20194;-79
2023/12/26 06:57:50;;;;;;;14.37;13.07;;;;;;;6.43;72.97;93028.75;5064644;28;20232;-80
2023/12/26 07:00:18;;;;;;;13.67;12.23;;;;;;;6.54;71.86;93025.25;5064940;28;20244;-78
2023/12/26 07:02:43;;;;;;;15.00;13.60;;;;;;;6.50;72.58;93031.97;5064701;28;20301;-77
2023/12/26 07:05:09;;;;;;;13.77;12.47;;;;;;;6.51;72.16;93023.94;5071167;28;20177;-78
2023/12/26 07:07:34;;;;;;;13.70;12.40;;;;;;;6.69;71.68;93035.81;5069215;28;20213;-78
2023/12/26 07:10:00;;;;;;;14.37;12.50;;;;;;;6.73;72.40;93044.66;5065877;28;20189;-78
2023/12/26 07:12:25;;;;;;;13.63;12.53;;;;;;;6.97;73.97;93058.13;5085475;28;20239;-76
2023/12/26 07:14:51;;;;;;;14.77;13.37;;;;;;;7.04;71.18;93043.13;5068925;28;20194;-77
2023/12/26 07:17:16;;;;;;;13.63;12.73;;;;;;;6.97;73.74;93048.53;5068062;28;20241;-77
2023/12/26 07:19:41;;;;;;;12.27;11.27;;;;;;;7.06;69.52;93041.88;5070255;28;20182;-78
2023/12/26 07:22:07;;;;;;;12.70;11.60;;;;;;;7.42;67.94;93061.13;5066149;28;20228;-79
2023/12/26 07:24:32;;;;;;;13.03;11.80;;;;;;;7.48;69.08;93060.13;5066210;28;20204;-77
2023/12/26 07:26:57;;;;;;;12.90;12.03;;;;;;;7.47;69.78;93064.53;5063717;28;20312;-77
2023/12/26 07:29:23;;;;;;;12.73;11.63;;;;;;;7.60;68.55;93058.13;5040784;28;20202;-77
2023/12/26 07:31:51;;;;;;;13.13;12.03;;;;;;;7.58;70.05;93050.59;5042895;28;20289;-78
2023/12/26 07:34:16;;;;;;;14.10;13.00;;;;;;;7.63;71.36;93058.44;5064447;28;20190;-77
2023/12/26 07:36:41;;;;;;;12.87;11.87;;;;;;;7.58;71.28;93065.41;5046092;28;20244;-77
2023/12/26 07:39:07;;;;;;;13.93;12.10;;;;;;;7.68;70.89;93053.28;5044435;28;20213;-77
2023/12/26 07:41:32;;;;;;;17.33;14.10;;;;;;;7.79;69.30;93062.69;5048442;28;20182;-77
2023/12/26 07:43:58;;;;;;;12.47;11.40;;;;;;;7.77;69.88;93043.19;5047372;28;20209;-79
2023/12/26 07:46:24;;;;;;;14.40;13.27;;;;;;;7.80;69.68;93033.06;5046765;28;20193;-78
2023/12/26 07:48:50;;;;;;;13.77;12.60;;;;;;;7.95;68.54;93040.94;5059454;28;20209;-78
2023/12/26 07:51:15;;;;;;;13.73;12.37;;;;;;;7.94;69.21;93047.19;5070811;28;20228;-84
2023/12/26 07:53:41;;;;;;;14.90;13.50;;;;;;;8.08;69.40;93056.09;5067796;28;20225;-85
2023/12/26 07:56:06;;;;;;;14.80;13.43;;;;;;;8.28;69.48;93058.06;5061195;28;20257;-89
2023/12/26 07:58:35;;;;;;;15.57;13.33;;;;;;;8.25;68.30;93027.34;5048705;28;20340;-86
2023/12/26 08:01:01;;;;;;;14.53;13.23;;;;;;;8.26;69.53;93052.34;5049666;28;20254;-80
2023/12/26 08:03:26;;;;;;;14.23;13.10;;;;;;;8.52;68.38;93061.03;5062845;28;20240;-82
2023/12/26 08:05:52;;;;;;;15.53;13.93;;;;;;;8.55;69.49;93044.91;5061417;28;20197;-81
2023/12/26 08:08:17;;;;;;;14.87;13.37;;;;;;;8.34;69.84;93061.47;5063387;28;20233;-82
2023/12/26 08:10:44;;;;;;;16.10;14.63;;;;;;;8.53;68.80;93063.38;5065554;28;20197;-81
2023/12/26 08:13:10;;;;;;;16.40;14.80;;;;;;;8.71;67.47;93038.72;5063980;28;20225;-81
2023/12/26 08:15:36;;;;;;;20.20;17.63;;;;;;;8.96;67.24;93062.22;5067289;28;20211;-85
2023/12/26 08:18:02;;;;;;;21.57;15.87;;;;;;;8.70;68.14;93042.38;5067885;28;20233;-81
2023/12/26 08:20:27;;;;;;;23.50;18.63;;;;;;;8.97;67.30;93063.75;5063038;28;20243;-84
2023/12/26 08:22:53;;;;;;;20.17;18.03;;;;;;;9.01;67.43;93065.59;5059862;28;20229;-77
2023/12/26 08:25:18;;;;;;;21.33;19.23;;;;;;;9.25;66.35;93055.47;5064919;28;20181;-77
2023/12/26 08:27:43;;;;;;;23.70;21.50;;;;;;;9.30;66.91;93061.50;5061116;28;20237;-79
2023/12/26 08:30:09;;;;;;;21.80;19.47;;;;;;;8.78;69.24;93081.69;5082882;28;20219;-81
2023/12/26 08:32:34;;;;;;;23.50;17.47;;;;;;;8.78;69.92;93075.72;5054234;28;20259;-80
2023/12/26 08:35:00;;;;;;;19.83;17.47;;;;;;;9.13;67.95;93075.78;5049052;28;20194;-78
2023/12/26 08:37:27;;;;;;;26.37;19.93;;;;;;;9.38;67.37;93070.63;5042368;28;20234;-77
2023/12/26 08:39:53;;;;;;;26.10;16.40;;;;;;;8.86;69.78;93077.78;5044195;28;20194;-83
2023/12/26 08:42:18;;;;;;;19.73;16.70;;;;;;;9.05;68.57;93045.03;5040329;28;20301;-82
2023/12/26 08:44:43;;;;;;;21.47;16.60;;;;;;;9.30;67.70;93064.09;5045884;28;20186;-74
2023/12/26 08:47:09;;;;;;;18.97;16.97;;;;;;;9.45;67.33;93081.56;5051268;28;20293;-77
2023/12/26 08:49:34;;;;;;;19.67;16.20;;;;;;;9.57;66.55;93074.28;5060786;28;20186;-79
2023/12/26 08:52:02;;;;;;;18.57;16.20;;;;;;;9.52;67.28;93069.84;5064743;28;20368;-78
2023/12/26 08:54:27;;;;;;;22.20;16.77;;;;;;;9.85;65.04;93059.94;5065373;28;20253;-76
2023/12/26 08:56:53;;;;;;;22.57;16.20;;;;;;;9.63;66.39;93063.56;5066248;28;20228;-77
2023/12/26 08:59:20;;;;;;;19.50;17.43;;;;;;;9.78;65.62;93062.78;5064760;28;20211;-76
2023/12/26 09:01:45;;;;;;;21.63;17.07;;;;;;;9.52;66.00;93046.41;5067537;28;20244;-77
2023/12/26 09:04:10;;;;;;;18.80;16.50;;;;;;;9.57;66.40;93069.06;5065418;28;20185;-76
2023/12/26 09:06:36;;;;;;;17.53;15.57;;;;;;;9.76;65.17;93047.41;5064153;28;20211;-75
2023/12/26 09:09:01;;;;;;;22.67;15.93;;;;;;;9.96;65.02;93058.88;5044021;28;20324;-76
2023/12/26 09:11:28;;;;;;;17.27;15.47;;;;;;;9.85;65.86;93049.50;5042621;28;20205;-77
2023/12/26 09:13:54;;;;;;;19.17;15.07;;;;;;;9.53;66.43;93054.97;5043174;28;20217;-77
2023/12/26 09:16:20;;;;;;;15.83;14.07;;;;;;;9.82;65.14;93062.00;5039899;28;20198;-76
2023/12/26 09:18:45;;;;;;;16.10;14.67;;;;;;;10.07;64.31;93056.00;5043311;28;20225;-77
2023/12/26 09:21:10;;;;;;;13.53;12.53;;;;;;;10.25;62.97;93057.28;5043064;28;20273;-77
2023/12/26 09:23:36;;;;;;;15.70;14.37;;;;;;;10.18;62.50;93033.31;5063351;28;20309;-77
2023/12/26 09:26:05;;;;;;;16.10;14.40;;;;;;;10.21;62.30;93027.53;5065960;28;20213;-76
2023/12/26 09:28:31;;;;;;;14.90;13.50;;;;;;;9.90;63.51;93015.59;5069668;28;20263;-77
2023/12/26 09:30:57;;;;;;;15.47;14.17;;;;;;;9.76;63.18;92981.44;5063815;28;20590;-76
2023/12/26 09:33:22;;;;;;;14.53;13.27;;;;;;;9.90;63.44;93013.75;5067992;28;20218;-78
2023/12/26 09:35:47;;;;;;;17.10;15.43;;;;;;;10.20;63.37;93026.75;5069454;28;20207;-77
2023/12/26 09:38:13;;;;;;;15.93;14.23;;;;;;;9.67;64.70;93006.50;5066687;28;20251;-77
2023/12/26 09:40:38;;;;;;;17.03;13.57;;;;;;;10.12;63.17;93014.25;5064191;28;20201;-77
2023/12/26 09:43:04;;;;;;;16.90;15.27;;;;;;;10.45;61.65;93020.66;5049035;28;20214;-78
2023/12/26 09:45:31;;;;;;;15.63;14.03;;;;;;;10.59;61.30;93013.81;5050356;28;20183;-77
2023/12/26 09:47:57;;;;;;;14.67;13.53;;;;;;;10.61;60.94;93022.97;5042858;28;20229;-77
2023/12/26 09:50:23;;;;;;;18.40;13.57;;;;;;;10.46;60.45;93025.63;5048731;28;20253;-77
2023/12/26 09:52:53;;;;;;;15.03;13.70;;;;;;;10.42;60.66;93008.94;5040126;28;20899;-77
2023/12/26 09:55:20;;;;;;;16.40;14.70;;;;;;;10.77;59.87;93016.59;5040784;28;20187;-77
2023/12/26 09:57:46;;;;;;;15.20;13.63;;;;;;;10.92;59.63;93013.91;5049023;28;20229;-77
2023/12/26 10:00:12;;;;;;;17.93;14.97;;;;;;;10.69;59.85;92993.66;5047894;28;20246;-78
2023/12/26 10:02:37;;;;;;;15.30;13.83;;;;;;;11.00;58.69;93013.31;5042662;28;20217;-77
2023/12/26 10:05:03;;;;;;;14.77;13.07;;;;;;;11.03;59.00;93012.03;5042471;28;20274;-76
2023/12/26 10:07:28;;;;;;;17.07;14.87;;;;;;;10.96;59.71;93020.16;5061417;28;20234;-76
2023/12/26 10:09:54;;;;;;;16.17;14.63;;;;;;;11.16;57.90;92988.66;5042344;28;20265;-77
2023/12/26 10:12:19;;;;;;;16.00;14.37;;;;;;;10.96;59.10;93004.47;5041780;28;20241;-78
2023/12/26 10:14:45;;;;;;;21.97;14.47;;;;;;;11.02;63.55;92995.56;5046743;28;20182;-80
2023/12/26 10:17:12;;;;;;;17.47;15.70;;;;;;;11.11;57.75;92977.50;5048654;28;20260;-77
2023/12/26 10:19:38;;;;;;;16.50;14.73;;;;;;;11.47;56.62;92999.66;5002709;28;1142306;-79
2023/12/26 10:22:03;;;;;;;16.60;14.00;;;;;;;11.41;56.95;93000.75;5044054;28;20261;-76
2023/12/26 10:24:29;;;;;;;18.17;15.00;;;;;;;11.44;56.51;92989.00;5049922;28;20194;-76
2023/12/26 10:26:55;;;;;;;15.87;14.47;;;;;;;11.57;56.00;92989.13;5042316;28;21148;-77
2023/12/26 10:29:21;;;;;;;15.67;14.27;;;;;;;11.69;55.93;92994.03;5047007;28;20190;-77
2023/12/26 10:31:46;;;;;;;16.40;14.83;;;;;;;11.66;55.48;92977.06;5041815;28;20297;-77
2023/12/26 10:34:16;;;;;;;16.47;14.17;;;;;;;11.70;55.52;92966.81;5047998;28;20210;-77
2023/12/26 10:36:43;;;;;;;17.47;14.80;;;;;;;11.93;54.68;92974.72;5048069;28;20233;-76
2023/12/26 10:39:10;;;;;;;17.10;15.30;;;;;;;12.00;54.03;92953.44;5063801;28;20211;-77
2023/12/26 10:41:38;;;;;;;16.20;13.97;;;;;;;12.06;53.70;92968.03;5063222;28;20262;-77
2023/12/26 10:44:06;;;;;;;17.77;13.60;;;;;;;12.12;54.12;92965.09;5065476;28;20182;-76
2023/12/26 10:46:32;;;;;;;18.40;13.10;;;;;;;12.15;53.75;92959.28;5064774;28;20202;-76
2023/12/26 10:49:04;;;;;;;16.77;13.43;;;;;;;12.30;53.12;92974.03;5068957;28;20218;-77
2023/12/26 10:51:30;;;;;;;22.00;14.23;;;;;;;12.14;52.55;92957.72;5068549;28;20203;-76
2023/12/26 10:54:17;;;;;;;14.40;12.53;;;;;;;12.39;52.44;92972.38;5070660;28;20216;-77
2023/12/26 10:56:44;;;;;;;14.03;12.53;;;;;;;12.22;52.42;92961.56;5063519;28;20233;-76
2023/12/26 10:59:11;;;;;;;13.73;12.43;;;;;;;12.34;51.97;92970.56;5049558;28;20211;-76
2023/12/26 13:53:50;;;;;;;10.47;9.77;;;;;;;11.64;58.77;92822.28;5041104;28;20243;-78
2023/12/26 13:56:53;;;;;;;11.70;10.90;;;;;;;11.59;59.30;92830.16;5046980;28;20239;-78
2023/12/26 13:59:56;;;;;;;13.47;12.23;;;;;;;11.49;59.65;92832.84;5047279;28;20223;-79
2023/12/26 14:02:59;;;;;;;13.27;12.13;;;;;;;11.49;58.31;92829.47;5047734;28;20233;-81
2023/12/26 14:06:02;;;;;;;15.13;10.97;;;;;;;11.41;58.05;92819.63;5035374;28;21549;-82
2023/12/26 14:09:05;;;;;;;14.30;10.83;;;;;;;11.47;57.87;92808.06;5074646;28;20225;-81
2023/12/26 14:12:08;;;;;;;13.13;12.00;;;;;;;11.29;59.01;92810.34;5052559;28;20190;-81
2023/12/26 14:15:11;;;;;;;13.03;11.90;;;;;;;11.27;57.66;92817.66;5064541;28;20241;-79
2023/12/26 14:18:14;;;;;;;13.23;12.27;;;;;;;11.17;59.14;92807.31;5071070;28;20294;-79